sensor_id;sensor_type;location;lat;lon;timestamp;P1;durP1;ratioP1;P2;durP2;ratioP2
12814;SDS011;6472;52.328;13.070;2024-03-02T00:00:56;67.13;;;37.50;;
12814;SDS011;6472;52.328;13.070;2024-03-02T00:03:24;70.53;;;37.10;;
12814;SDS011;6472;52.328;13.070;2024-03-02T00:05:52;67.70;;;37.93;;
12814;SDS011;6472;52.328;13.070;2024-03-02T00:08:22;74.10;;;37.70;;
12814;SDS011;6472;52.328;13.070;2024-03-02T00:10:55;66.77;;;36.07;;
12814;SDS011;6472;52.328;13.070;2024-03-02T00:13:25;69.37;;;39.10;;
12814;SDS011;6472;52.328;13.070;2024-03-02T00:15:56;74.50;;;38.60;;
12814;SDS011;6472;52.328;13.070;2024-03-02T00:18:25;79.83;;;39.90;;
12814;SDS011;6472;52.328;13.070;2024-03-02T00:20:55;69.80;;;37.33;;
12814;SDS011;6472;52.328;13.070;2024-03-02T00:23:24;67.93;;;37.20;;
12814;SDS011;6472;52.328;13.070;2024-03-02T00:25:55;67.63;;;38.00;;
12814;SDS011;6472;52.328;13.070;2024-03-02T00:28:24;71.83;;;39.30;;
12814;SDS011;6472;52.328;13.070;2024-03-02T00:30:56;75.97;;;39.63;;
12814;SDS011;6472;52.328;13.070;2024-03-02T00:33:26;73.63;;;40.40;;
12814;SDS011;6472;52.328;13.070;2024-03-02T00:35:57;74.57;;;38.27;;
12814;SDS011;6472;52.328;13.070;2024-03-02T00:38:26;80.83;;;40.90;;
12814;SDS011;6472;52.328;13.070;2024-03-02T00:40:55;72.83;;;40.53;;
12814;SDS011;6472;52.328;13.070;2024-03-02T00:46:16;73.30;;;37.63;;
12814;SDS011;6472;52.328;13.070;2024-03-02T00:48:53;70.80;;;39.03;;
12814;SDS011;6472;52.328;13.070;2024-03-02T00:51:23;65.37;;;34.77;;
12814;SDS011;6472;52.328;13.070;2024-03-02T00:53:52;71.97;;;39.90;;
12814;SDS011;6472;52.328;13.070;2024-03-02T00:56:23;66.20;;;35.70;;
12814;SDS011;6472;52.328;13.070;2024-03-02T00:58:52;66.93;;;36.90;;
12814;SDS011;6472;52.328;13.070;2024-03-02T01:01:22;63.57;;;33.47;;
12814;SDS011;6472;52.328;13.070;2024-03-02T01:03:51;63.10;;;35.10;;
12814;SDS011;6472;52.328;13.070;2024-03-02T01:06:20;60.00;;;33.00;;
12814;SDS011;6472;52.328;13.070;2024-03-02T01:08:49;62.13;;;33.87;;
12814;SDS011;6472;52.328;13.070;2024-03-02T01:11:19;55.00;;;32.70;;
12814;SDS011;6472;52.328;13.070;2024-03-02T01:13:49;64.73;;;33.17;;
12814;SDS011;6472;52.328;13.070;2024-03-02T01:16:18;59.47;;;32.60;;
12814;SDS011;6472;52.328;13.070;2024-03-02T01:18:47;64.50;;;33.40;;
12814;SDS011;6472;52.328;13.070;2024-03-02T01:21:16;54.00;;;31.27;;
12814;SDS011;6472;52.328;13.070;2024-03-02T01:23:45;59.57;;;32.13;;
12814;SDS011;6472;52.328;13.070;2024-03-02T01:26:13;61.43;;;31.10;;
12814;SDS011;6472;52.328;13.070;2024-03-02T01:28:41;64.13;;;33.40;;
12814;SDS011;6472;52.328;13.070;2024-03-02T01:31:09;64.90;;;34.07;;
12814;SDS011;6472;52.328;13.070;2024-03-02T01:33:37;62.23;;;31.60;;
12814;SDS011;6472;52.328;13.070;2024-03-02T01:36:07;55.20;;;30.33;;
12814;SDS011;6472;52.328;13.070;2024-03-02T01:38:35;55.20;;;31.73;;
12814;SDS011;6472;52.328;13.070;2024-03-02T01:41:04;54.50;;;30.63;;
12814;SDS011;6472;52.328;13.070;2024-03-02T01:43:32;57.37;;;31.63;;
12814;SDS011;6472;52.328;13.070;2024-03-02T01:46:03;56.30;;;32.00;;
12814;SDS011;6472;52.328;13.070;2024-03-02T01:48:31;60.70;;;32.57;;
12814;SDS011;6472;52.328;13.070;2024-03-02T01:51:00;51.00;;;29.83;;
12814;SDS011;6472;52.328;13.070;2024-03-02T01:53:30;55.70;;;30.13;;
12814;SDS011;6472;52.328;13.070;2024-03-02T01:55:59;58.80;;;31.43;;
12814;SDS011;6472;52.328;13.070;2024-03-02T01:58:27;66.63;;;33.03;;
12814;SDS011;6472;52.328;13.070;2024-03-02T02:00:56;58.43;;;32.40;;
12814;SDS011;6472;52.328;13.070;2024-03-02T02:03:24;61.17;;;32.50;;
12814;SDS011;6472;52.328;13.070;2024-03-02T02:05:52;61.47;;;34.80;;
12814;SDS011;6472;52.328;13.070;2024-03-02T02:08:21;69.13;;;34.37;;
12814;SDS011;6472;52.328;13.070;2024-03-02T02:10:50;60.47;;;34.70;;
12814;SDS011;6472;52.328;13.070;2024-03-02T02:13:19;65.27;;;32.03;;
12814;SDS011;6472;52.328;13.070;2024-03-02T02:15:47;64.17;;;33.93;;
12814;SDS011;6472;52.328;13.070;2024-03-02T02:18:15;60.23;;;31.87;;
12814;SDS011;6472;52.328;13.070;2024-03-02T02:20:44;57.67;;;31.93;;
12814;SDS011;6472;52.328;13.070;2024-03-02T02:23:13;61.13;;;32.37;;
12814;SDS011;6472;52.328;13.070;2024-03-02T02:25:41;54.07;;;28.93;;
12814;SDS011;6472;52.328;13.070;2024-03-02T02:28:10;55.43;;;29.27;;
12814;SDS011;6472;52.328;13.070;2024-03-02T02:30:38;56.13;;;28.77;;
12814;SDS011;6472;52.328;13.070;2024-03-02T02:33:06;53.63;;;29.63;;
12814;SDS011;6472;52.328;13.070;2024-03-02T02:35:35;52.80;;;29.23;;
12814;SDS011;6472;52.328;13.070;2024-03-02T02:38:04;59.03;;;30.30;;
12814;SDS011;6472;52.328;13.070;2024-03-02T02:40:35;51.23;;;28.63;;
12814;SDS011;6472;52.328;13.070;2024-03-02T02:43:03;47.00;;;26.20;;
12814;SDS011;6472;52.328;13.070;2024-03-02T02:45:33;47.47;;;29.00;;
12814;SDS011;6472;52.328;13.070;2024-03-02T02:48:01;50.07;;;28.90;;
12814;SDS011;6472;52.328;13.070;2024-03-02T02:50:30;51.90;;;28.17;;
12814;SDS011;6472;52.328;13.070;2024-03-02T02:52:58;49.17;;;28.43;;
12814;SDS011;6472;52.328;13.070;2024-03-02T02:55:26;47.17;;;27.03;;
12814;SDS011;6472;52.328;13.070;2024-03-02T02:57:56;45.37;;;25.63;;
12814;SDS011;6472;52.328;13.070;2024-03-02T03:00:24;50.10;;;27.63;;
12814;SDS011;6472;52.328;13.070;2024-03-02T03:02:53;50.03;;;27.77;;
12814;SDS011;6472;52.328;13.070;2024-03-02T03:05:21;48.93;;;28.87;;
12814;SDS011;6472;52.328;13.070;2024-03-02T03:07:49;51.23;;;28.17;;
12814;SDS011;6472;52.328;13.070;2024-03-02T03:10:18;47.63;;;26.27;;
12814;SDS011;6472;52.328;13.070;2024-03-02T03:12:48;48.13;;;28.67;;
12814;SDS011;6472;52.328;13.070;2024-03-02T03:15:18;50.10;;;27.93;;
12814;SDS011;6472;52.328;13.070;2024-03-02T03:17:46;49.70;;;27.67;;
12814;SDS011;6472;52.328;13.070;2024-03-02T03:20:15;51.10;;;27.97;;
12814;SDS011;6472;52.328;13.070;2024-03-02T03:22:43;52.40;;;29.00;;
12814;SDS011;6472;52.328;13.070;2024-03-02T03:25:11;51.77;;;29.53;;
12814;SDS011;6472;52.328;13.070;2024-03-02T03:27:39;50.47;;;28.43;;
12814;SDS011;6472;52.328;13.070;2024-03-02T03:30:08;47.20;;;27.43;;
12814;SDS011;6472;52.328;13.070;2024-03-02T03:32:39;51.47;;;29.20;;
12814;SDS011;6472;52.328;13.070;2024-03-02T03:35:07;49.60;;;27.23;;
12814;SDS011;6472;52.328;13.070;2024-03-02T03:37:36;50.23;;;27.37;;
12814;SDS011;6472;52.328;13.070;2024-03-02T03:40:05;52.63;;;28.00;;
12814;SDS011;6472;52.328;13.070;2024-03-02T03:42:37;54.30;;;29.57;;
12814;SDS011;6472;52.328;13.070;2024-03-02T03:45:06;44.40;;;27.77;;
12814;SDS011;6472;52.328;13.070;2024-03-02T03:47:35;50.03;;;27.77;;
12814;SDS011;6472;52.328;13.070;2024-03-02T03:50:05;52.03;;;30.03;;
12814;SDS011;6472;52.328;13.070;2024-03-02T03:52:34;50.43;;;27.47;;
12814;SDS011;6472;52.328;13.070;2024-03-02T03:55:03;55.53;;;29.10;;
12814;SDS011;6472;52.328;13.070;2024-03-02T03:57:32;52.03;;;28.83;;
12814;SDS011;6472;52.328;13.070;2024-03-02T04:00:01;48.00;;;27.80;;
12814;SDS011;6472;52.328;13.070;2024-03-02T04:02:30;52.00;;;28.33;;
12814;SDS011;6472;52.328;13.070;2024-03-02T04:04:58;52.63;;;29.67;;
12814;SDS011;6472;52.328;13.070;2024-03-02T04:07:27;55.20;;;29.83;;
12814;SDS011;6472;52.328;13.070;2024-03-02T04:09:56;55.40;;;30.57;;
12814;SDS011;6472;52.328;13.070;2024-03-02T04:12:24;48.50;;;28.97;;
12814;SDS011;6472;52.328;13.070;2024-03-02T04:14:52;52.47;;;27.13;;
12814;SDS011;6472;52.328;13.070;2024-03-02T04:17:20;51.97;;;26.63;;
12814;SDS011;6472;52.328;13.070;2024-03-02T04:19:49;51.67;;;28.63;;
12814;SDS011;6472;52.328;13.070;2024-03-02T04:22:17;55.87;;;31.07;;
12814;SDS011;6472;52.328;13.070;2024-03-02T04:24:52;45.60;;;28.00;;
12814;SDS011;6472;52.328;13.070;2024-03-02T04:27:20;52.23;;;28.03;;
12814;SDS011;6472;52.328;13.070;2024-03-02T04:29:49;51.53;;;28.33;;
12814;SDS011;6472;52.328;13.070;2024-03-02T04:32:17;48.53;;;26.23;;
12814;SDS011;6472;52.328;13.070;2024-03-02T04:34:46;47.13;;;26.37;;
12814;SDS011;6472;52.328;13.070;2024-03-02T04:37:14;48.97;;;26.57;;
12814;SDS011;6472;52.328;13.070;2024-03-02T04:39:42;49.70;;;27.13;;
12814;SDS011;6472;52.328;13.070;2024-03-02T04:42:12;48.20;;;27.60;;
12814;SDS011;6472;52.328;13.070;2024-03-02T04:44:40;50.77;;;27.57;;
12814;SDS011;6472;52.328;13.070;2024-03-02T04:47:09;50.30;;;27.07;;
12814;SDS011;6472;52.328;13.070;2024-03-02T04:49:37;51.60;;;27.70;;
12814;SDS011;6472;52.328;13.070;2024-03-02T04:52:05;52.27;;;28.43;;
12814;SDS011;6472;52.328;13.070;2024-03-02T04:54:33;48.90;;;28.10;;
12814;SDS011;6472;52.328;13.070;2024-03-02T04:57:24;46.40;;;27.67;;
12814;SDS011;6472;52.328;13.070;2024-03-02T04:59:52;46.93;;;27.40;;
12814;SDS011;6472;52.328;13.070;2024-03-02T05:02:21;57.20;;;29.13;;
12814;SDS011;6472;52.328;13.070;2024-03-02T05:04:49;48.93;;;29.13;;
12814;SDS011;6472;52.328;13.070;2024-03-02T05:07:17;49.23;;;27.97;;
12814;SDS011;6472;52.328;13.070;2024-03-02T05:09:46;50.97;;;27.43;;
12814;SDS011;6472;52.328;13.070;2024-03-02T05:12:14;55.13;;;28.73;;
12814;SDS011;6472;52.328;13.070;2024-03-02T05:15:08;52.53;;;28.20;;
12814;SDS011;6472;52.328;13.070;2024-03-02T05:17:37;53.47;;;29.67;;
12814;SDS011;6472;52.328;13.070;2024-03-02T05:20:06;49.83;;;27.03;;
12814;SDS011;6472;52.328;13.070;2024-03-02T05:22:35;51.57;;;27.60;;
12814;SDS011;6472;52.328;13.070;2024-03-02T05:25:04;53.30;;;28.63;;
12814;SDS011;6472;52.328;13.070;2024-03-02T05:27:33;51.40;;;29.33;;
12814;SDS011;6472;52.328;13.070;2024-03-02T05:30:02;55.00;;;28.80;;
12814;SDS011;6472;52.328;13.070;2024-03-02T05:32:34;49.33;;;27.70;;
12814;SDS011;6472;52.328;13.070;2024-03-02T05:35:02;54.50;;;29.67;;
12814;SDS011;6472;52.328;13.070;2024-03-02T05:37:31;58.87;;;30.03;;
12814;SDS011;6472;52.328;13.070;2024-03-02T05:40:00;50.17;;;26.60;;
12814;SDS011;6472;52.328;13.070;2024-03-02T05:42:29;57.63;;;29.60;;
12814;SDS011;6472;52.328;13.070;2024-03-02T05:44:57;48.83;;;27.10;;
12814;SDS011;6472;52.328;13.070;2024-03-02T05:47:25;55.43;;;28.57;;
12814;SDS011;6472;52.328;13.070;2024-03-02T05:49:55;52.43;;;27.87;;
12814;SDS011;6472;52.328;13.070;2024-03-02T05:52:24;46.53;;;28.10;;
12814;SDS011;6472;52.328;13.070;2024-03-02T05:54:52;52.43;;;27.87;;
12814;SDS011;6472;52.328;13.070;2024-03-02T05:57:20;54.83;;;30.50;;
12814;SDS011;6472;52.328;13.070;2024-03-02T06:00:03;46.97;;;27.93;;
12814;SDS011;6472;52.328;13.070;2024-03-02T06:02:34;56.83;;;29.87;;
12814;SDS011;6472;52.328;13.070;2024-03-02T06:05:07;54.17;;;27.87;;
12814;SDS011;6472;52.328;13.070;2024-03-02T06:07:35;48.73;;;26.83;;
12814;SDS011;6472;52.328;13.070;2024-03-02T06:10:03;54.97;;;28.00;;
12814;SDS011;6472;52.328;13.070;2024-03-02T06:12:37;54.63;;;29.50;;
12814;SDS011;6472;52.328;13.070;2024-03-02T06:15:06;53.57;;;28.80;;
12814;SDS011;6472;52.328;13.070;2024-03-02T06:17:35;53.20;;;28.60;;
12814;SDS011;6472;52.328;13.070;2024-03-02T06:20:04;52.63;;;29.73;;
12814;SDS011;6472;52.328;13.070;2024-03-02T06:22:35;49.23;;;27.23;;
12814;SDS011;6472;52.328;13.070;2024-03-02T06:25:04;47.93;;;26.17;;
12814;SDS011;6472;52.328;13.070;2024-03-02T06:27:32;49.13;;;26.23;;
12814;SDS011;6472;52.328;13.070;2024-03-02T06:30:01;47.40;;;25.73;;
12814;SDS011;6472;52.328;13.070;2024-03-02T06:32:30;52.30;;;27.37;;
12814;SDS011;6472;52.328;13.070;2024-03-02T06:34:59;56.70;;;30.70;;
12814;SDS011;6472;52.328;13.070;2024-03-02T06:37:29;53.70;;;29.70;;
12814;SDS011;6472;52.328;13.070;2024-03-02T06:39:56;53.73;;;29.87;;
12814;SDS011;6472;52.328;13.070;2024-03-02T06:42:27;56.27;;;29.73;;
12814;SDS011;6472;52.328;13.070;2024-03-02T06:44:59;51.53;;;29.07;;
12814;SDS011;6472;52.328;13.070;2024-03-02T06:47:28;55.33;;;30.27;;
12814;SDS011;6472;52.328;13.070;2024-03-02T06:49:56;54.23;;;28.33;;
12814;SDS011;6472;52.328;13.070;2024-03-02T06:52:24;62.33;;;31.70;;
12814;SDS011;6472;52.328;13.070;2024-03-02T06:54:54;63.40;;;32.80;;
12814;SDS011;6472;52.328;13.070;2024-03-02T06:57:22;53.07;;;29.70;;
12814;SDS011;6472;52.328;13.070;2024-03-02T06:59:51;61.00;;;32.50;;
12814;SDS011;6472;52.328;13.070;2024-03-02T07:02:21;60.40;;;30.67;;
12814;SDS011;6472;52.328;13.070;2024-03-02T07:04:49;52.37;;;29.70;;
12814;SDS011;6472;52.328;13.070;2024-03-02T07:07:17;58.73;;;29.47;;
12814;SDS011;6472;52.328;13.070;2024-03-02T07:09:45;52.73;;;27.80;;
12814;SDS011;6472;52.328;13.070;2024-03-02T07:12:15;65.60;;;31.40;;
12814;SDS011;6472;52.328;13.070;2024-03-02T07:14:43;61.10;;;31.10;;
12814;SDS011;6472;52.328;13.070;2024-03-02T07:17:37;52.70;;;29.73;;
12814;SDS011;6472;52.328;13.070;2024-03-02T07:20:06;56.47;;;29.70;;
12814;SDS011;6472;52.328;13.070;2024-03-02T07:22:34;61.37;;;31.17;;
12814;SDS011;6472;52.328;13.070;2024-03-02T07:25:07;59.37;;;32.10;;
12814;SDS011;6472;52.328;13.070;2024-03-02T07:27:56;65.93;;;33.03;;
12814;SDS011;6472;52.328;13.070;2024-03-02T07:30:24;57.43;;;29.57;;
12814;SDS011;6472;52.328;13.070;2024-03-02T07:32:53;61.10;;;32.23;;
12814;SDS011;6472;52.328;13.070;2024-03-02T07:35:21;57.17;;;31.07;;
12814;SDS011;6472;52.328;13.070;2024-03-02T07:37:53;65.00;;;32.23;;
12814;SDS011;6472;52.328;13.070;2024-03-02T07:40:22;65.60;;;35.13;;
12814;SDS011;6472;52.328;13.070;2024-03-02T07:42:50;64.83;;;32.67;;
12814;SDS011;6472;52.328;13.070;2024-03-02T07:45:20;64.20;;;31.37;;
12814;SDS011;6472;52.328;13.070;2024-03-02T07:47:48;65.67;;;34.30;;
12814;SDS011;6472;52.328;13.070;2024-03-02T07:50:18;57.87;;;33.20;;
12814;SDS011;6472;52.328;13.070;2024-03-02T07:52:47;58.40;;;32.07;;
12814;SDS011;6472;52.328;13.070;2024-03-02T07:55:15;56.30;;;30.23;;
12814;SDS011;6472;52.328;13.070;2024-03-02T07:57:43;64.17;;;32.67;;
12814;SDS011;6472;52.328;13.070;2024-03-02T08:00:12;63.20;;;34.13;;
12814;SDS011;6472;52.328;13.070;2024-03-02T08:02:42;62.27;;;32.83;;
12814;SDS011;6472;52.328;13.070;2024-03-02T08:05:10;65.17;;;31.80;;
12814;SDS011;6472;52.328;13.070;2024-03-02T08:07:38;60.17;;;32.40;;
12814;SDS011;6472;52.328;13.070;2024-03-02T08:10:07;64.83;;;33.23;;
12814;SDS011;6472;52.328;13.070;2024-03-02T08:12:36;65.20;;;33.00;;
12814;SDS011;6472;52.328;13.070;2024-03-02T08:15:04;63.80;;;33.57;;
12814;SDS011;6472;52.328;13.070;2024-03-02T08:17:33;60.33;;;31.83;;
12814;SDS011;6472;52.328;13.070;2024-03-02T08:20:06;58.00;;;31.20;;
12814;SDS011;6472;52.328;13.070;2024-03-02T08:22:35;69.00;;;32.70;;
12814;SDS011;6472;52.328;13.070;2024-03-02T08:25:04;65.07;;;32.73;;
12814;SDS011;6472;52.328;13.070;2024-03-02T08:27:32;64.07;;;32.93;;
12814;SDS011;6472;52.328;13.070;2024-03-02T08:30:01;57.13;;;31.67;;
12814;SDS011;6472;52.328;13.070;2024-03-02T08:32:32;60.77;;;34.00;;
12814;SDS011;6472;52.328;13.070;2024-03-02T08:35:01;61.50;;;31.87;;
12814;SDS011;6472;52.328;13.070;2024-03-02T08:37:31;59.07;;;32.90;;
12814;SDS011;6472;52.328;13.070;2024-03-02T08:39:59;61.93;;;31.80;;
12814;SDS011;6472;52.328;13.070;2024-03-02T08:42:27;61.73;;;33.43;;
12814;SDS011;6472;52.328;13.070;2024-03-02T08:44:56;57.43;;;31.63;;
12814;SDS011;6472;52.328;13.070;2024-03-02T08:47:24;60.63;;;30.60;;
12814;SDS011;6472;52.328;13.070;2024-03-02T08:49:52;64.27;;;34.53;;
12814;SDS011;6472;52.328;13.070;2024-03-02T08:52:23;57.57;;;30.37;;
12814;SDS011;6472;52.328;13.070;2024-03-02T08:54:53;59.80;;;31.20;;
12814;SDS011;6472;52.328;13.070;2024-03-02T08:57:21;65.23;;;31.83;;
12814;SDS011;6472;52.328;13.070;2024-03-02T08:59:50;50.23;;;28.13;;
12814;SDS011;6472;52.328;13.070;2024-03-02T09:02:18;58.47;;;29.77;;
12814;SDS011;6472;52.328;13.070;2024-03-02T09:04:46;54.10;;;28.40;;
12814;SDS011;6472;52.328;13.070;2024-03-02T09:07:14;56.20;;;30.63;;
12814;SDS011;6472;52.328;13.070;2024-03-02T09:09:43;55.27;;;28.53;;
12814;SDS011;6472;52.328;13.070;2024-03-02T09:12:12;53.23;;;28.87;;
12814;SDS011;6472;52.328;13.070;2024-03-02T09:14:41;52.23;;;28.27;;
12814;SDS011;6472;52.328;13.070;2024-03-02T09:17:09;53.63;;;28.60;;
12814;SDS011;6472;52.328;13.070;2024-03-02T09:19:38;47.07;;;26.37;;
12814;SDS011;6472;52.328;13.070;2024-03-02T09:22:07;51.00;;;26.33;;
12814;SDS011;6472;52.328;13.070;2024-03-02T09:24:36;46.73;;;25.60;;
12814;SDS011;6472;52.328;13.070;2024-03-02T09:27:04;47.47;;;27.87;;
12814;SDS011;6472;52.328;13.070;2024-03-02T09:29:34;52.03;;;27.60;;
12814;SDS011;6472;52.328;13.070;2024-03-02T09:32:02;46.80;;;26.37;;
12814;SDS011;6472;52.328;13.070;2024-03-02T09:34:31;53.93;;;26.10;;
12814;SDS011;6472;52.328;13.070;2024-03-02T09:37:00;46.20;;;24.63;;
12814;SDS011;6472;52.328;13.070;2024-03-02T09:39:28;46.20;;;25.53;;
12814;SDS011;6472;52.328;13.070;2024-03-02T09:41:56;45.97;;;26.30;;
12814;SDS011;6472;52.328;13.070;2024-03-02T09:44:25;47.90;;;27.60;;
12814;SDS011;6472;52.328;13.070;2024-03-02T09:46:55;46.17;;;26.83;;
12814;SDS011;6472;52.328;13.070;2024-03-02T09:49:23;45.03;;;27.17;;
12814;SDS011;6472;52.328;13.070;2024-03-02T09:51:52;48.57;;;25.90;;
12814;SDS011;6472;52.328;13.070;2024-03-02T09:54:20;44.17;;;26.87;;
12814;SDS011;6472;52.328;13.070;2024-03-02T09:56:49;41.67;;;24.33;;
12814;SDS011;6472;52.328;13.070;2024-03-02T09:59:18;42.03;;;23.90;;
12814;SDS011;6472;52.328;13.070;2024-03-02T10:01:58;43.13;;;25.00;;
12814;SDS011;6472;52.328;13.070;2024-03-02T10:04:28;41.33;;;25.40;;
12814;SDS011;6472;52.328;13.070;2024-03-02T10:09:41;40.00;;;23.80;;
12814;SDS011;6472;52.328;13.070;2024-03-02T10:12:12;42.93;;;25.43;;
12814;SDS011;6472;52.328;13.070;2024-03-02T10:14:41;38.80;;;23.10;;
12814;SDS011;6472;52.328;13.070;2024-03-02T10:17:11;39.33;;;23.00;;
12814;SDS011;6472;52.328;13.070;2024-03-02T10:19:41;40.37;;;23.27;;
12814;SDS011;6472;52.328;13.070;2024-03-02T10:22:10;40.53;;;23.47;;
12814;SDS011;6472;52.328;13.070;2024-03-02T10:24:38;38.80;;;21.60;;
12814;SDS011;6472;52.328;13.070;2024-03-02T10:27:07;38.33;;;22.83;;
12814;SDS011;6472;52.328;13.070;2024-03-02T10:29:36;39.10;;;21.63;;
12814;SDS011;6472;52.328;13.070;2024-03-02T10:32:08;40.63;;;22.00;;
12814;SDS011;6472;52.328;13.070;2024-03-02T10:34:39;39.67;;;21.97;;
12814;SDS011;6472;52.328;13.070;2024-03-02T10:37:08;36.70;;;21.20;;
12814;SDS011;6472;52.328;13.070;2024-03-02T10:39:38;38.73;;;20.93;;
12814;SDS011;6472;52.328;13.070;2024-03-02T10:42:07;36.87;;;22.23;;
12814;SDS011;6472;52.328;13.070;2024-03-02T10:44:36;37.37;;;21.30;;
12814;SDS011;6472;52.328;13.070;2024-03-02T10:47:04;35.03;;;20.27;;
12814;SDS011;6472;52.328;13.070;2024-03-02T10:49:33;37.83;;;22.10;;
12814;SDS011;6472;52.328;13.070;2024-03-02T10:52:02;40.33;;;22.43;;
12814;SDS011;6472;52.328;13.070;2024-03-02T10:54:31;36.80;;;21.67;;
12814;SDS011;6472;52.328;13.070;2024-03-02T10:57:04;34.47;;;21.57;;
12814;SDS011;6472;52.328;13.070;2024-03-02T10:59:36;39.20;;;20.80;;
12814;SDS011;6472;52.328;13.070;2024-03-02T11:02:06;40.80;;;21.40;;
12814;SDS011;6472;52.328;13.070;2024-03-02T11:04:38;36.43;;;20.90;;
12814;SDS011;6472;52.328;13.070;2024-03-02T11:07:10;33.03;;;20.90;;
12814;SDS011;6472;52.328;13.070;2024-03-02T11:09:39;32.37;;;19.83;;
12814;SDS011;6472;52.328;13.070;2024-03-02T11:12:09;33.17;;;19.63;;
12814;SDS011;6472;52.328;13.070;2024-03-02T11:14:44;35.40;;;20.23;;
12814;SDS011;6472;52.328;13.070;2024-03-02T11:17:13;34.03;;;19.40;;
12814;SDS011;6472;52.328;13.070;2024-03-02T11:19:43;36.13;;;20.20;;
12814;SDS011;6472;52.328;13.070;2024-03-02T11:22:13;33.43;;;20.83;;
12814;SDS011;6472;52.328;13.070;2024-03-02T11:24:47;33.33;;;19.70;;
12814;SDS011;6472;52.328;13.070;2024-03-02T11:27:20;28.20;;;19.07;;
12814;SDS011;6472;52.328;13.070;2024-03-02T11:30:48;28.77;;;18.50;;
12814;SDS011;6472;52.328;13.070;2024-03-02T11:33:24;29.20;;;18.87;;
12814;SDS011;6472;52.328;13.070;2024-03-02T11:35:57;29.33;;;17.67;;
12814;SDS011;6472;52.328;13.070;2024-03-02T11:38:33;28.33;;;16.63;;
12814;SDS011;6472;52.328;13.070;2024-03-02T11:41:02;25.97;;;17.43;;
12814;SDS011;6472;52.328;13.070;2024-03-02T11:43:36;26.03;;;17.10;;
12814;SDS011;6472;52.328;13.070;2024-03-02T11:46:06;32.17;;;18.40;;
12814;SDS011;6472;52.328;13.070;2024-03-02T11:48:35;29.63;;;16.53;;
12814;SDS011;6472;52.328;13.070;2024-03-02T11:51:04;29.00;;;17.00;;
12814;SDS011;6472;52.328;13.070;2024-03-02T11:53:34;30.90;;;17.80;;
12814;SDS011;6472;52.328;13.070;2024-03-02T11:56:06;30.43;;;18.43;;
12814;SDS011;6472;52.328;13.070;2024-03-02T11:58:38;28.23;;;16.83;;
12814;SDS011;6472;52.328;13.070;2024-03-02T12:01:07;26.93;;;16.43;;
12814;SDS011;6472;52.328;13.070;2024-03-02T12:03:36;25.30;;;15.90;;
12814;SDS011;6472;52.328;13.070;2024-03-02T12:06:05;27.07;;;16.23;;
12814;SDS011;6472;52.328;13.070;2024-03-02T12:08:35;24.20;;;15.73;;
12814;SDS011;6472;52.328;13.070;2024-03-02T12:11:04;23.27;;;15.77;;
12814;SDS011;6472;52.328;13.070;2024-03-02T12:13:34;29.83;;;17.03;;
12814;SDS011;6472;52.328;13.070;2024-03-02T12:16:02;20.87;;;13.90;;
12814;SDS011;6472;52.328;13.070;2024-03-02T12:18:30;20.83;;;14.00;;
12814;SDS011;6472;52.328;13.070;2024-03-02T12:20:59;20.63;;;14.33;;
12814;SDS011;6472;52.328;13.070;2024-03-02T12:23:29;23.03;;;15.77;;
12814;SDS011;6472;52.328;13.070;2024-03-02T12:25:58;24.93;;;16.00;;
12814;SDS011;6472;52.328;13.070;2024-03-02T12:28:26;24.07;;;15.60;;
12814;SDS011;6472;52.328;13.070;2024-03-02T12:30:57;20.30;;;13.80;;
12814;SDS011;6472;52.328;13.070;2024-03-02T12:33:25;19.73;;;13.17;;
12814;SDS011;6472;52.328;13.070;2024-03-02T12:35:56;21.57;;;12.80;;
12814;SDS011;6472;52.328;13.070;2024-03-02T12:38:25;22.63;;;13.13;;
12814;SDS011;6472;52.328;13.070;2024-03-02T12:40:53;18.00;;;11.63;;
12814;SDS011;6472;52.328;13.070;2024-03-02T12:43:23;19.43;;;12.73;;
12814;SDS011;6472;52.328;13.070;2024-03-02T12:45:51;19.67;;;11.63;;
12814;SDS011;6472;52.328;13.070;2024-03-02T12:48:22;18.93;;;12.23;;
12814;SDS011;6472;52.328;13.070;2024-03-02T12:50:50;16.17;;;10.93;;
12814;SDS011;6472;52.328;13.070;2024-03-02T12:53:19;16.93;;;11.03;;
12814;SDS011;6472;52.328;13.070;2024-03-02T12:55:49;18.83;;;11.57;;
12814;SDS011;6472;52.328;13.070;2024-03-02T12:58:18;17.40;;;11.37;;
12814;SDS011;6472;52.328;13.070;2024-03-02T13:00:49;16.60;;;11.37;;
12814;SDS011;6472;52.328;13.070;2024-03-02T13:03:17;14.33;;;10.90;;
12814;SDS011;6472;52.328;13.070;2024-03-02T13:05:49;18.80;;;11.73;;
12814;SDS011;6472;52.328;13.070;2024-03-02T13:08:17;17.70;;;10.93;;
12814;SDS011;6472;52.328;13.070;2024-03-02T13:10:45;14.90;;;9.73;;
12814;SDS011;6472;52.328;13.070;2024-03-02T13:13:13;14.93;;;9.93;;
12814;SDS011;6472;52.328;13.070;2024-03-02T13:15:42;14.17;;;9.90;;
12814;SDS011;6472;52.328;13.070;2024-03-02T13:18:12;13.87;;;9.60;;
12814;SDS011;6472;52.328;13.070;2024-03-02T13:20:41;14.40;;;9.93;;
12814;SDS011;6472;52.328;13.070;2024-03-02T13:23:09;16.67;;;9.70;;
12814;SDS011;6472;52.328;13.070;2024-03-02T13:25:37;15.90;;;9.97;;
12814;SDS011;6472;52.328;13.070;2024-03-02T13:28:05;14.90;;;10.43;;
12814;SDS011;6472;52.328;13.070;2024-03-02T13:30:34;16.73;;;10.17;;
12814;SDS011;6472;52.328;13.070;2024-03-02T13:33:02;15.17;;;9.30;;
12814;SDS011;6472;52.328;13.070;2024-03-02T13:35:32;15.60;;;10.13;;
12814;SDS011;6472;52.328;13.070;2024-03-02T13:38:00;16.57;;;10.07;;
12814;SDS011;6472;52.328;13.070;2024-03-02T13:40:28;14.37;;;9.63;;
12814;SDS011;6472;52.328;13.070;2024-03-02T13:43:01;14.67;;;10.10;;
12814;SDS011;6472;52.328;13.070;2024-03-02T13:45:30;12.90;;;8.10;;
12814;SDS011;6472;52.328;13.070;2024-03-02T13:47:58;17.63;;;9.20;;
12814;SDS011;6472;52.328;13.070;2024-03-02T13:50:27;12.97;;;8.83;;
12814;SDS011;6472;52.328;13.070;2024-03-02T13:52:58;13.77;;;9.13;;
12814;SDS011;6472;52.328;13.070;2024-03-02T13:55:26;10.60;;;8.03;;
12814;SDS011;6472;52.328;13.070;2024-03-02T13:57:54;14.53;;;8.77;;
12814;SDS011;6472;52.328;13.070;2024-03-02T14:00:23;14.30;;;8.30;;
12814;SDS011;6472;52.328;13.070;2024-03-02T14:02:51;9.97;;;6.80;;
12814;SDS011;6472;52.328;13.070;2024-03-02T14:05:19;11.90;;;7.63;;
12814;SDS011;6472;52.328;13.070;2024-03-02T14:07:48;10.47;;;7.37;;
12814;SDS011;6472;52.328;13.070;2024-03-02T14:10:17;11.23;;;7.07;;
12814;SDS011;6472;52.328;13.070;2024-03-02T14:12:48;11.50;;;7.77;;
12814;SDS011;6472;52.328;13.070;2024-03-02T14:15:17;15.07;;;7.50;;
12814;SDS011;6472;52.328;13.070;2024-03-02T14:17:47;10.17;;;6.80;;
12814;SDS011;6472;52.328;13.070;2024-03-02T14:20:15;10.13;;;7.70;;
12814;SDS011;6472;52.328;13.070;2024-03-02T14:22:48;11.33;;;7.67;;
12814;SDS011;6472;52.328;13.070;2024-03-02T14:25:18;11.80;;;7.67;;
12814;SDS011;6472;52.328;13.070;2024-03-02T14:27:46;11.97;;;8.10;;
12814;SDS011;6472;52.328;13.070;2024-03-02T14:30:34;12.40;;;8.03;;
12814;SDS011;6472;52.328;13.070;2024-03-02T14:33:03;12.53;;;8.20;;
12814;SDS011;6472;52.328;13.070;2024-03-02T14:35:32;12.10;;;7.40;;
12814;SDS011;6472;52.328;13.070;2024-03-02T14:38:00;10.97;;;7.27;;
12814;SDS011;6472;52.328;13.070;2024-03-02T14:40:30;12.10;;;8.30;;
12814;SDS011;6472;52.328;13.070;2024-03-02T14:42:58;13.23;;;8.50;;